Time;durP1;ratioP1;P1;durP2;ratioP2;P2;SDS_P1;SDS_P2;PMS_P1;PMS_P2;Temp;Humidity;BMP_temperature;BMP_pressure;BME280_temperature;BME280_humidity;BME280_pressure;Samples;Min_cycle;Max_cycle;Signal;HPM_P1;HPM_P2
2022/06/07 00:01:38;;;;;;;2.67;2.47;;;12.90;99.90;;;;;;5116453;28;20262;-51
2022/06/07 00:04:08;;;;;;;2.43;2.23;;;12.90;99.90;;;;;;5117349;28;20740;-51
2022/06/07 00:06:36;;;;;;;4.57;2.50;;;12.80;99.90;;;;;;5109707;28;20211;-51
2022/06/07 00:09:04;;;;;;;3.73;2.53;;;12.80;99.90;;;;;;5109177;28;20253;-51
2022/06/07 00:11:32;;;;;;;3.40;2.40;;;12.70;99.90;;;;;;5108859;28;20243;-51
2022/06/07 00:14:00;;;;;;;3.73;2.30;;;12.70;99.90;;;;;;5109136;28;20703;-51
2022/06/07 00:16:28;;;;;;;2.33;2.13;;;12.70;99.90;;;;;;5108138;28;20243;-51
2022/06/07 00:18:56;;;;;;;2.93;2.10;;;12.70;99.90;;;;;;5109183;28;20207;-51
2022/06/07 00:21:29;;;;;;;2.57;2.37;;;12.70;99.90;;;;;;5106764;28;20238;-51
2022/06/07 00:23:57;;;;;;;4.07;2.80;;;12.70;99.90;;;;;;5103562;28;20257;-51
2022/06/07 00:26:25;;;;;;;2.47;2.20;;;12.70;99.90;;;;;;5112778;28;20204;-51
2022/06/07 00:28:53;;;;;;;3.13;2.33;;;12.60;99.90;;;;;;5113170;28;20208;-51
2022/06/07 00:31:21;;;;;;;2.93;2.33;;;12.60;99.90;;;;;;5113137;28;20265;-51
2022/06/07 00:33:49;;;;;;;3.83;2.03;;;12.50;99.90;;;;;;5112175;28;20223;-51
2022/06/07 00:36:17;;;;;;;2.63;2.20;;;12.50;99.90;;;;;;5112523;28;20239;-51
2022/06/07 00:38:47;;;;;;;2.40;2.20;;;12.50;99.90;;;;;;5099912;28;20203;-51
2022/06/07 00:41:15;;;;;;;3.13;2.10;;;12.50;99.90;;;;;;5113059;28;20238;-51
2022/06/07 00:44:19;;;;;;;2.40;2.20;;;12.40;99.90;;;;;;5112468;28;20239;-51
2022/06/07 00:46:49;;;;;;;3.37;2.17;;;12.40;99.90;;;;;;5111799;28;20230;-51
2022/06/07 00:49:18;;;;;;;2.97;2.53;;;12.30;99.90;;;;;;5101804;28;20246;-51
2022/06/07 00:51:46;;;;;;;3.97;2.27;;;12.30;99.90;;;;;;5112346;28;20319;-51
2022/06/07 00:54:20;;;;;;;2.40;2.20;;;12.30;99.90;;;;;;5112165;28;20855;-51
2022/06/07 00:56:49;;;;;;;4.67;2.40;;;12.20;99.90;;;;;;5112576;28;20210;-51
2022/06/07 00:59:17;;;;;;;2.73;2.03;;;12.20;99.90;;;;;;5112219;28;20699;-51
2022/06/07 01:01:46;;;;;;;3.73;2.30;;;12.20;99.90;;;;;;5097666;28;20208;-52
2022/06/07 01:04:14;;;;;;;2.53;2.33;;;12.20;99.90;;;;;;5112462;28;20230;-51
2022/06/07 01:12:15;;;;;;;3.67;2.23;;;12.00;99.90;;;;;;5112169;28;20630;-51
2022/06/07 01:14:43;;;;;;;2.77;2.20;;;12.00;99.90;;;;;;5112373;28;20686;-51
2022/06/07 01:17:11;;;;;;;3.17;2.30;;;12.00;99.90;;;;;;5111108;28;20235;-51
2022/06/07 01:19:39;;;;;;;2.40;2.20;;;11.90;99.90;;;;;;5112410;28;20212;-51
2022/06/07 01:22:09;;;;;;;2.40;2.20;;;11.90;99.90;;;;;;5102692;28;20649;-51
2022/06/07 01:24:37;;;;;;;2.40;2.20;;;11.90;99.90;;;;;;5108237;28;20219;-51
2022/06/07 01:27:06;;;;;;;2.60;2.33;;;11.90;99.90;;;;;;5112168;28;20239;-52
2022/06/07 01:29:34;;;;;;;3.10;2.47;;;11.90;99.90;;;;;;5112230;28;20286;-51
2022/06/07 01:32:03;;;;;;;2.30;2.10;;;11.90;99.90;;;;;;5111545;28;20200;-51
2022/06/07 01:34:31;;;;;;;2.63;2.43;;;11.80;99.90;;;;;;5111306;28;20255;-51
2022/06/07 01:37:00;;;;;;;2.80;2.33;;;11.80;99.90;;;;;;5110287;28;20286;-51
2022/06/07 01:42:16;;;;;;;3.73;2.30;;;11.60;99.90;;;;;;5111553;28;20219;-51
2022/06/07 01:44:47;;;;;;;3.33;2.70;;;11.60;99.90;;;;;;5111166;28;20227;-51
2022/06/07 01:47:18;;;;;;;2.53;2.17;;;11.60;99.90;;;;;;5107328;28;20200;-51
2022/06/07 01:49:47;;;;;;;2.77;2.20;;;11.60;99.90;;;;;;5101809;28;20199;-51
2022/06/07 01:52:18;;;;;;;6.87;2.60;;;11.60;99.90;;;;;;5111040;28;20225;-51
2022/06/07 01:54:47;;;;;;;2.37;2.10;;;11.50;99.90;;;;;;5111154;28;20226;-52
2022/06/07 01:57:15;;;;;;;2.43;2.20;;;11.50;99.90;;;;;;5111122;28;20298;-50
2022/06/07 01:59:43;;;;;;;2.73;2.53;;;11.60;99.90;;;;;;5110656;28;20195;-51
2022/06/07 02:02:12;;;;;;;2.80;2.33;;;11.60;99.90;;;;;;5111108;28;20211;-51
2022/06/07 02:04:41;;;;;;;2.20;2.00;;;11.60;99.90;;;;;;5110791;28;20731;-51
2022/06/07 02:07:10;;;;;;;3.33;2.30;;;11.60;99.90;;;;;;5111144;28;20259;-51
2022/06/07 02:09:42;;;;;;;3.00;2.70;;;11.70;99.90;;;;;;5110545;28;20212;-50
2022/06/07 02:12:12;;;;;;;3.53;2.23;;;11.70;99.90;;;;;;5111048;28;20208;-51
2022/06/07 02:14:40;;;;;;;3.63;2.23;;;11.80;99.90;;;;;;5105752;28;20258;-51
2022/06/07 02:17:09;;;;;;;2.10;1.93;;;11.80;99.90;;;;;;5111007;28;20268;-51
2022/06/07 02:19:37;;;;;;;5.57;2.10;;;11.80;99.90;;;;;;5110741;28;20249;-51
2022/06/07 02:22:05;;;;;;;3.70;2.37;;;11.90;99.90;;;;;;5101496;28;20212;-51
2022/06/07 02:24:34;;;;;;;2.93;2.00;;;11.90;99.90;;;;;;5106764;28;20221;-50
2022/06/07 02:27:05;;;;;;;3.03;2.23;;;12.00;99.90;;;;;;5110539;28;20235;-51
2022/06/07 02:29:38;;;;;;;4.10;2.13;;;12.00;99.90;;;;;;5110629;28;20239;-51
2022/06/07 02:32:11;;;;;;;2.40;2.20;;;12.00;99.90;;;;;;5109952;28;20203;-51
2022/06/07 02:34:41;;;;;;;2.33;2.10;;;12.00;99.90;;;;;;5110508;28;20236;-51
2022/06/07 02:37:11;;;;;;;3.40;2.30;;;12.10;99.90;;;;;;5103784;28;20216;-51
2022/06/07 02:39:39;;;;;;;4.10;2.40;;;12.10;99.90;;;;;;5104681;28;20207;-51
2022/06/07 02:42:09;;;;;;;2.60;2.20;;;12.20;99.90;;;;;;5110180;28;20711;-51
2022/06/07 02:44:40;;;;;;;2.80;2.27;;;12.20;99.90;;;;;;5109908;28;20220;-51
2022/06/07 02:47:08;;;;;;;2.57;2.37;;;12.20;99.90;;;;;;5106615;28;20235;-51
2022/06/07 02:49:37;;;;;;;4.23;2.67;;;12.20;99.90;;;;;;5102279;28;20208;-50
2022/06/07 02:52:06;;;;;;;4.07;2.37;;;12.20;99.90;;;;;;5110149;28;20250;-50
2022/06/07 02:54:37;;;;;;;3.13;2.30;;;12.30;99.90;;;;;;5110075;28;20769;-51
2022/06/07 02:57:06;;;;;;;4.43;2.73;;;12.30;99.90;;;;;;5109905;28;20665;-51
2022/06/07 02:59:34;;;;;;;3.13;2.47;;;12.30;99.90;;;;;;5109991;28;20886;-51
2022/06/07 03:02:05;;;;;;;2.50;2.30;;;12.30;99.90;;;;;;5110009;28;20245;-51
2022/06/07 03:04:33;;;;;;;3.40;2.37;;;12.30;99.90;;;;;;5110023;28;20332;-50
2022/06/07 03:07:03;;;;;;;3.47;2.57;;;12.40;99.90;;;;;;5109839;28;20207;-51
2022/06/07 03:09:31;;;;;;;4.87;2.43;;;12.40;99.90;;;;;;5109536;28;20518;-50
2022/06/07 03:11:59;;;;;;;2.50;2.30;;;12.40;99.90;;;;;;5109654;28;20199;-51
2022/06/07 03:14:27;;;;;;;2.73;2.53;;;12.40;99.90;;;;;;5107810;28;20249;-51
2022/06/07 03:16:57;;;;;;;3.87;2.30;;;12.40;99.90;;;;;;5109691;28;20286;-51
2022/06/07 03:19:29;;;;;;;4.40;2.63;;;12.50;99.90;;;;;;5109585;28;20200;-51
2022/06/07 03:21:57;;;;;;;4.33;2.40;;;12.50;99.90;;;;;;5101768;28;20236;-51
2022/06/07 03:24:26;;;;;;;3.53;2.27;;;12.50;99.90;;;;;;5089658;28;20225;-51
2022/06/07 03:26:54;;;;;;;3.63;2.70;;;12.50;99.90;;;;;;5110056;28;20203;-51
2022/06/07 03:29:23;;;;;;;2.50;2.30;;;12.50;99.90;;;;;;5109963;28;20298;-55
2022/06/07 03:31:51;;;;;;;2.67;2.43;;;12.50;99.90;;;;;;5109641;28;20204;-51
2022/06/07 03:34:20;;;;;;;3.47;2.50;;;12.50;99.90;;;;;;5110087;28;20267;-50
2022/06/07 03:36:49;;;;;;;4.40;2.43;;;12.60;99.90;;;;;;5106421;28;20283;-49
2022/06/07 03:39:17;;;;;;;5.57;2.57;;;12.50;99.90;;;;;;5100741;28;20246;-51
2022/06/07 03:41:45;;;;;;;2.73;2.47;;;12.50;99.90;;;;;;5109932;28;20250;-51
2022/06/07 03:44:13;;;;;;;2.50;2.30;;;12.50;99.90;;;;;;5109811;28;20265;-50
2022/06/07 03:46:44;;;;;;;2.80;2.50;;;12.50;99.90;;;;;;5109300;28;20264;-50
2022/06/07 03:49:12;;;;;;;2.53;2.20;;;12.50;99.90;;;;;;5086947;28;20239;-51
2022/06/07 03:51:41;;;;;;;2.53;2.33;;;12.50;99.90;;;;;;5109667;28;20241;-50
2022/06/07 03:54:10;;;;;;;2.40;2.20;;;12.50;99.90;;;;;;5109414;28;20231;-51
2022/06/07 03:56:38;;;;;;;2.70;2.50;;;12.50;99.90;;;;;;5109548;28;20204;-50
2022/06/07 03:59:07;;;;;;;3.33;2.30;;;12.50;99.90;;;;;;5085924;28;20235;-51
2022/06/07 04:01:35;;;;;;;3.23;2.50;;;12.60;99.90;;;;;;5113781;28;20257;-51
2022/06/07 04:04:06;;;;;;;2.93;2.60;;;12.70;99.90;;;;;;5113044;28;20203;-51
2022/06/07 04:06:38;;;;;;;3.03;2.60;;;12.80;99.90;;;;;;5113538;28;20212;-51
2022/06/07 04:09:06;;;;;;;3.60;2.30;;;12.90;99.90;;;;;;5113131;28;20253;-51
2022/06/07 04:11:36;;;;;;;3.20;2.33;;;13.20;99.90;;;;;;5113440;28;20626;-51
2022/06/07 04:14:04;;;;;;;2.63;2.43;;;14.00;99.90;;;;;;5110973;28;20224;-51
2022/06/07 04:16:32;;;;;;;2.20;2.10;;;14.60;99.90;;;;;;5113312;28;20264;-52
2022/06/07 04:19:00;;;;;;;2.53;2.33;;;14.70;99.90;;;;;;5113079;28;20208;-51
2022/06/07 04:21:28;;;;;;;3.97;2.80;;;14.90;99.90;;;;;;5109914;28;20201;-51
2022/06/07 04:23:56;;;;;;;2.30;2.10;;;15.00;99.90;;;;;;5103570;28;20204;-51
2022/06/07 04:26:27;;;;;;;3.33;2.63;;;15.50;99.90;;;;;;5112925;28;20216;-51
2022/06/07 04:28:58;;;;;;;2.67;2.38;;;15.30;99.90;;;;;;5112484;28;20235;-51
2022/06/07 04:31:27;;;;;;;3.05;2.70;;;14.90;99.90;;;;;;5112603;28;20222;-51
2022/06/07 04:33:57;;;;;;;5.00;2.80;;;14.70;99.90;;;;;;5112694;28;20256;-51
2022/06/07 04:36:27;;;;;;;2.70;2.50;;;14.60;99.90;;;;;;5112514;28;20269;-51
2022/06/07 04:38:57;;;;;;;5.93;2.55;;;14.70;99.90;;;;;;5087998;28;20203;-51
2022/06/07 04:41:25;;;;;;;3.25;2.10;;;16.20;99.90;;;;;;5112983;28;20200;-51
2022/06/07 04:43:55;;;;;;;2.28;2.10;;;17.30;99.90;;;;;;5112392;28;20248;-51
2022/06/07 04:46:25;;;;;;;3.03;2.30;;;18.00;99.90;;;;;;5112802;28;20218;-52
2022/06/07 04:48:54;;;;;;;3.08;2.47;;;18.40;99.90;;;;;;5100563;28;20215;-52
2022/06/07 04:51:27;;;;;;;3.22;2.15;;;18.90;99.90;;;;;;5112695;28;20245;-51
2022/06/07 04:53:57;;;;;;;2.33;2.10;;;19.30;99.90;;;;;;5106829;28;20295;-51
2022/06/07 04:56:27;;;;;;;2.10;2.00;;;19.70;99.90;;;;;;5104367;28;20203;-52
2022/06/07 04:58:55;;;;;;;2.40;2.05;;;20.00;99.90;;;;;;5112691;28;20242;-52
2022/06/07 05:01:26;;;;;;;2.65;1.90;;;20.10;99.90;;;;;;5111546;28;21027;-51
2022/06/07 05:03:55;;;;;;;2.97;2.15;;;20.50;99.90;;;;;;5112417;28;20211;-52
2022/06/07 05:06:25;;;;;;;4.13;2.40;;;20.80;99.90;;;;;;5112156;28;20242;-52
2022/06/07 05:08:57;;;;;;;2.33;2.00;;;21.10;99.90;;;;;;5111704;28;20208;-52
2022/06/07 05:11:25;;;;;;;2.00;1.80;;;21.30;99.90;;;;;;5112243;28;20207;-52
2022/06/07 05:13:54;;;;;;;3.58;2.15;;;21.60;99.90;;;;;;5103024;28;20274;-52
2022/06/07 05:16:24;;;;;;;6.45;2.33;;;21.90;99.90;;;;;;5095634;28;20689;-52
2022/06/07 05:18:53;;;;;;;2.63;1.90;;;22.10;99.90;;;;;;5100527;28;20303;-52
2022/06/07 05:21:23;;;;;;;3.45;1.90;;;22.20;99.90;;;;;;5109010;28;20579;-51
2022/06/07 05:23:53;;;;;;;1.92;1.80;;;22.40;99.90;;;;;;5100991;28;20711;-51
2022/06/07 05:26:26;;;;;;;3.03;2.10;;;22.30;99.90;;;;;;5111621;28;20199;-52
2022/06/07 05:28:55;;;;;;;2.15;1.85;;;22.60;99.90;;;;;;5111582;28;20207;-51
2022/06/07 05:31:25;;;;;;;3.55;1.90;;;22.80;99.90;;;;;;5111379;28;20263;-52
2022/06/07 05:33:54;;;;;;;1.90;1.80;;;22.90;99.90;;;;;;5111298;28;20260;-52
2022/06/07 05:36:22;;;;;;;1.80;1.70;;;23.30;99.90;;;;;;5099291;28;20238;-52
2022/06/07 05:38:51;;;;;;;2.13;1.70;;;23.40;99.90;;;;;;5110878;28;20211;-52
2022/06/07 05:41:22;;;;;;;3.15;2.00;;;23.60;99.90;;;;;;5111961;28;20239;-52
2022/06/07 05:43:50;;;;;;;2.38;2.10;;;23.10;99.90;;;;;;5083131;28;20211;-51
2022/06/07 05:46:19;;;;;;;2.70;2.03;;;21.80;99.90;;;;;;5110063;28;20203;-51
2022/06/07 05:48:48;;;;;;;3.28;1.90;;;21.10;99.90;;;;;;5098665;28;20199;-52
2022/06/07 05:51:17;;;;;;;2.75;1.77;;;20.60;99.90;;;;;;5111486;28;20203;-51
2022/06/07 05:53:45;;;;;;;2.60;2.20;;;21.50;99.90;;;;;;5111189;28;20265;-52
2022/06/07 05:56:16;;;;;;;2.28;2.00;;;22.40;99.90;;;;;;5111490;28;20694;-52
2022/06/07 05:58:44;;;;;;;3.25;1.80;;;23.00;99.90;;;;;;5111357;28;20234;-53
2022/06/07 06:01:12;;;;;;;3.03;2.22;;;23.60;99.90;;;;;;5110785;28;20212;-52
2022/06/07 06:03:40;;;;;;;2.50;2.10;;;23.40;99.90;;;;;;5111099;28;20246;-52
2022/06/07 06:06:11;;;;;;;2.58;2.20;;;22.10;99.90;;;;;;5110881;28;20261;-52
2022/06/07 06:11:28;;;;;;;3.22;2.13;;;20.50;99.90;;;;;;5110874;28;20249;-52
2022/06/07 06:13:56;;;;;;;2.50;2.30;;;20.70;99.90;;;;;;5102290;28;20212;-52
2022/06/07 06:16:25;;;;;;;2.38;2.10;;;20.50;99.90;;;;;;5110742;28;20317;-52
2022/06/07 06:18:56;;;;;;;2.83;2.28;;;20.90;99.90;;;;;;5110907;28;20207;-52
2022/06/07 06:21:27;;;;;;;2.72;2.08;;;20.80;99.90;;;;;;5107519;28;20238;-52
2022/06/07 06:23:58;;;;;;;3.88;2.17;;;20.80;99.90;;;;;;5101012;28;20207;-52
2022/06/07 06:26:28;;;;;;;5.53;2.40;;;20.60;99.90;;;;;;5110309;28;20206;-52
2022/06/07 06:28:56;;;;;;;2.28;2.00;;;20.30;99.90;;;;;;5111177;28;20227;-52
2022/06/07 06:31:24;;;;;;;3.15;2.17;;;20.10;99.90;;;;;;5110705;28;20246;-52
2022/06/07 06:33:55;;;;;;;4.18;2.40;;;19.90;99.90;;;;;;5110516;28;20211;-52
2022/06/07 06:36:27;;;;;;;2.78;2.47;;;19.70;99.90;;;;;;5110029;28;20642;-52
2022/06/07 06:38:56;;;;;;;2.55;2.20;;;19.70;99.90;;;;;;5110112;28;21049;-52
2022/06/07 06:41:26;;;;;;;2.80;2.60;;;19.80;99.90;;;;;;5110176;28;20210;-52
2022/06/07 06:43:55;;;;;;;3.85;2.33;;;19.70;99.90;;;;;;5110684;28;20207;-52
2022/06/07 06:46:26;;;;;;;3.83;2.45;;;19.60;99.90;;;;;;5110534;28;20938;-51
2022/06/07 06:48:54;;;;;;;3.97;2.10;;;19.50;99.90;;;;;;5097851;28;20738;-51
2022/06/07 06:51:25;;;;;;;2.80;1.95;;;19.40;99.90;;;;;;5103966;28;20684;-51
2022/06/07 06:53:57;;;;;;;2.58;1.98;;;19.30;99.90;;;;;;5109892;28;20239;-51
2022/06/07 06:56:25;;;;;;;2.80;2.00;;;19.20;99.90;;;;;;5110458;28;20644;-51
2022/06/07 06:58:53;;;;;;;4.40;1.88;;;19.30;99.90;;;;;;5110196;28;20235;-51
2022/06/07 07:01:23;;;;;;;2.75;1.88;;;20.40;99.90;;;;;;5110676;28;20239;-51
2022/06/07 07:03:51;;;;;;;3.47;1.80;;;21.50;99.90;;;;;;5108596;28;20255;-52
2022/06/07 07:06:21;;;;;;;4.28;1.70;;;22.40;99.90;;;;;;5110185;28;20907;-52
2022/06/07 07:08:50;;;;;;;3.15;1.75;;;22.90;99.90;;;;;;5087735;28;20269;-52
2022/06/07 07:11:22;;;;;;;3.15;1.80;;;23.10;99.90;;;;;;5098527;28;20692;-52
2022/06/07 07:13:53;;;;;;;4.03;2.00;;;23.40;99.90;;;;;;5095139;28;20266;-53
2022/06/07 07:16:24;;;;;;;2.55;1.75;;;23.50;99.90;;;;;;5109415;28;20223;-52
2022/06/07 07:18:53;;;;;;;2.05;1.63;;;23.60;99.90;;;;;;5109582;28;20207;-52
2022/06/07 07:21:23;;;;;;;3.10;1.60;;;24.10;99.90;;;;;;5107423;28;20253;-52
2022/06/07 07:23:52;;;;;;;3.50;1.80;;;24.20;99.90;;;;;;5099839;28;20208;-52
2022/06/07 07:26:24;;;;;;;3.38;1.70;;;24.50;99.90;;;;;;5110212;28;20254;-52
2022/06/07 07:28:53;;;;;;;1.98;1.75;;;24.50;99.90;;;;;;5110269;28;20211;-52
2022/06/07 07:31:24;;;;;;;3.67;1.55;;;24.70;99.90;;;;;;5110065;28;20638;-52
2022/06/07 07:33:53;;;;;;;1.70;1.60;;;25.00;99.90;;;;;;5114409;28;20242;-52
2022/06/07 07:36:22;;;;;;;2.65;1.60;;;25.20;99.90;;;;;;5113541;28;20223;-52
2022/06/07 07:38:50;;;;;;;2.75;1.80;;;25.00;99.90;;;;;;5113935;28;20199;-52
2022/06/07 07:41:23;;;;;;;2.17;1.48;;;24.90;99.90;;;;;;5114082;28;20672;-52
2022/06/07 07:43:54;;;;;;;1.65;1.55;;;24.50;99.90;;;;;;5112060;28;20272;-51
2022/06/07 07:46:24;;;;;;;3.35;1.67;;;24.80;99.90;;;;;;5113668;28;20725;-52
2022/06/07 07:48:52;;;;;;;4.05;1.67;;;25.40;99.90;;;;;;5097349;28;20286;-52
2022/06/07 07:51:23;;;;;;;3.20;1.35;;;25.80;99.90;;;;;;5107797;28;20711;-52
2022/06/07 07:53:51;;;;;;;3.05;1.48;;;26.30;99.90;;;;;;5113642;28;20249;-52
2022/06/07 07:56:21;;;;;;;2.88;1.30;;;25.90;99.90;;;;;;5113766;28;20284;-52
2022/06/07 07:58:51;;;;;;;1.85;1.58;;;25.50;99.90;;;;;;5113930;28;20591;-52
2022/06/07 08:01:21;;;;;;;3.08;1.48;;;25.30;99.90;;;;;;5113160;28;20234;-52
2022/06/07 08:03:50;;;;;;;3.55;1.45;;;25.70;99.90;;;;;;5113917;28;20268;-52
2022/06/07 08:06:22;;;;;;;3.80;1.42;;;25.90;99.90;;;;;;5113682;28;20211;-52
2022/06/07 08:08:53;;;;;;;3.00;1.50;;;25.80;99.90;;;;;;5113217;28;20695;-52
2022/06/07 08:11:25;;;;;;;3.63;1.30;;;25.70;99.90;;;;;;5113479;28;20583;-51
2022/06/07 08:13:53;;;;;;;2.70;1.48;;;25.20;99.90;;;;;;5111580;28;20205;-53
2022/06/07 08:16:22;;;;;;;2.80;1.50;;;24.50;99.90;;;;;;5113221;28;20231;-52
2022/06/07 08:18:50;;;;;;;3.95;1.30;;;24.40;99.90;;;;;;5113194;28;20656;-52
2022/06/07 08:21:22;;;;;;;3.95;1.60;;;24.00;99.90;;;;;;5110234;28;20238;-52
2022/06/07 08:23:50;;;;;;;3.83;1.50;;;23.60;99.90;;;;;;5102329;28;20253;-52
2022/06/07 08:26:19;;;;;;;4.13;1.40;;;23.80;99.90;;;;;;5112489;28;20625;-52
2022/06/07 08:28:48;;;;;;;3.47;1.80;;;24.10;99.90;;;;;;5112975;28;20215;-52
2022/06/07 08:31:21;;;;;;;1.58;1.33;;;24.30;99.90;;;;;;5112508;28;20207;-52
2022/06/07 08:39:24;;;;;;;3.70;1.50;;;23.70;99.90;;;;;;5086194;28;20276;-51
2022/06/07 08:41:56;;;;;;;1.52;1.30;;;23.70;99.90;;;;;;5088975;28;20209;-51
2022/06/07 08:44:29;;;;;;;3.17;1.40;;;23.60;99.90;;;;;;5088097;28;20308;-51
2022/06/07 08:47:00;;;;;;;2.55;1.15;;;23.90;99.90;;;;;;5111336;28;20268;-52
2022/06/07 08:49:29;;;;;;;1.77;1.42;;;23.70;99.90;;;;;;5105707;28;20293;-52
2022/06/07 08:52:03;;;;;;;6.32;1.27;;;23.60;99.90;;;;;;5112764;28;20816;-52
2022/06/07 08:54:36;;;;;;;3.13;1.20;;;23.40;99.90;;;;;;5112554;28;20309;-52
2022/06/07 08:57:16;;;;;;;4.55;1.33;;;23.20;99.90;;;;;;5104440;28;20259;-51
2022/06/07 08:59:48;;;;;;;1.77;1.20;;;22.90;99.90;;;;;;5107535;28;20249;-52
2022/06/07 09:02:45;;;;;;;2.45;1.27;;;22.80;99.90;;;;;;5112300;28;20610;-52
2022/06/07 09:05:15;;;;;;;6.00;1.90;;;23.10;99.90;;;;;;5112239;28;20255;-52
2022/06/07 09:07:44;;;;;;;2.13;1.30;;;23.20;99.90;;;;;;5112098;28;20203;-51
2022/06/07 09:13:03;;;;;;;4.53;1.65;;;23.50;99.90;;;;;;5112336;28;20680;-52
2022/06/07 09:15:34;;;;;;;2.42;1.30;;;23.70;99.90;;;;;;5100023;28;20247;-52
2022/06/07 09:18:06;;;;;;;3.20;1.10;;;23.80;99.90;;;;;;5111679;28;20219;-51
2022/06/07 09:20:38;;;;;;;4.88;1.25;;;23.90;99.90;;;;;;5111897;28;20223;-50
2022/06/07 09:23:14;;;;;;;4.03;1.23;;;24.10;99.90;;;;;;5085681;28;20208;-52
2022/06/07 09:25:48;;;;;;;2.00;1.10;;;24.40;99.90;;;;;;5091617;28;20265;-51
2022/06/07 09:28:19;;;;;;;1.92;1.10;;;24.40;99.90;;;;;;5097323;28;20227;-52
2022/06/07 09:30:57;;;;;;;1.60;1.15;;;24.10;99.90;;;;;;5106918;28;20238;-52
2022/06/07 09:33:28;;;;;;;2.78;1.17;;;24.30;99.90;;;;;;5111031;28;20619;-52
2022/06/07 09:36:00;;;;;;;2.25;1.35;;;24.40;99.90;;;;;;5110923;28;20259;-52
2022/06/07 09:38:34;;;;;;;2.05;1.10;;;24.20;99.90;;;;;;5110610;28;20255;-52
2022/06/07 09:44:00;;;;;;;1.50;1.13;;;23.40;99.90;;;;;;5110307;28;20696;-51
2022/06/07 09:46:30;;;;;;;1.20;1.08;;;23.30;99.90;;;;;;5098612;28;20244;-51
2022/06/07 09:48:59;;;;;;;1.30;1.10;;;23.00;99.90;;;;;;5090748;28;20239;-51
2022/06/07 09:51:35;;;;;;;1.75;1.33;;;22.90;99.90;;;;;;5107292;28;20589;-52
2022/06/07 09:54:05;;;;;;;1.90;1.10;;;22.90;99.90;;;;;;5103706;28;20221;-51
2022/06/07 09:56:40;;;;;;;2.92;1.30;;;23.10;99.90;;;;;;5110696;28;20199;-52
2022/06/07 09:59:26;;;;;;;2.85;1.00;;;23.30;99.90;;;;;;5110996;28;20211;-52
2022/06/07 10:02:01;;;;;;;1.73;1.15;;;23.50;99.90;;;;;;5110861;28;20211;-51
2022/06/07 10:04:39;;;;;;;2.15;1.17;;;23.50;99.90;;;;;;5097579;28;20595;-51
2022/06/07 10:07:13;;;;;;;2.00;1.10;;;23.70;99.90;;;;;;5095391;28;20204;-51
2022/06/07 10:09:57;;;;;;;1.60;1.05;;;23.80;99.90;;;;;;5110882;28;20268;-52
2022/06/07 10:12:31;;;;;;;1.63;1.15;;;23.80;99.90;;;;;;5086402;28;20250;-51
2022/06/07 10:15:10;;;;;;;3.40;1.13;;;23.80;99.90;;;;;;5099004;28;20300;-52
2022/06/07 10:17:58;;;;;;;5.43;2.03;;;23.60;99.90;;;;;;5110416;28;20315;-52
2022/06/07 10:20:37;;;;;;;6.75;2.47;;;23.40;99.90;;;;;;5110201;28;20249;-52
2022/06/07 10:23:21;;;;;;;16.15;4.53;;;23.20;99.90;;;;;;5096004;28;20257;-52
2022/06/07 10:26:00;;;;;;;2.13;0.85;;;23.10;99.90;;;;;;5110498;28;20239;-51
2022/06/07 10:28:34;;;;;;;3.08;1.20;;;22.80;99.90;;;;;;5109704;28;20683;-51
2022/06/07 10:31:10;;;;;;;2.17;0.98;;;22.70;99.90;;;;;;5110219;28;20204;-52
2022/06/07 10:33:51;;;;;;;2.50;1.23;;;23.10;99.90;;;;;;5110526;28;20286;-51
2022/06/07 10:36:37;;;;;;;3.47;1.40;;;23.30;99.90;;;;;;5109959;28;20288;-51
2022/06/07 10:39:23;;;;;;;3.05;1.10;;;23.60;99.90;;;;;;5109931;28;20258;-52
2022/06/07 10:42:03;;;;;;;1.48;1.20;;;23.50;99.90;;;;;;5109699;28;20622;-53
2022/06/07 10:44:36;;;;;;;1.30;1.02;;;23.20;99.90;;;;;;5109710;28;20223;-52
2022/06/07 10:47:13;;;;;;;3.83;1.67;;;23.10;99.90;;;;;;5100672;28;20211;-52
2022/06/07 10:49:53;;;;;;;9.40;2.97;;;23.10;99.90;;;;;;5097963;28;20257;-52
2022/06/07 10:52:32;;;;;;;5.28;1.58;;;23.60;99.90;;;;;;5082160;28;20235;-52
2022/06/07 10:55:10;;;;;;;8.05;3.15;;;23.80;99.90;;;;;;5109352;28;20235;-52
2022/06/07 10:57:45;;;;;;;2.20;1.10;;;23.90;99.90;;;;;;5110101;28;20223;-52
2022/06/07 11:00:32;;;;;;;1.45;1.02;;;23.90;99.90;;;;;;5109851;28;20229;-52
2022/06/07 11:03:11;;;;;;;1.75;1.00;;;24.30;99.90;;;;;;5109966;28;20203;-52
2022/06/07 11:11:20;;;;;;;1.55;1.10;;;24.40;99.90;;;;;;5109544;28;20284;-52
2022/06/07 11:14:01;;;;;;;3.30;1.20;;;24.80;99.90;;;;;;5107897;28;20235;-52
2022/06/07 11:16:40;;;;;;;3.38;1.00;;;24.60;99.90;;;;;;5109456;28;20913;-52
2022/06/07 11:19:10;;;;;;;1.65;0.98;;;24.60;99.90;;;;;;5109922;28;20223;-52
2022/06/07 11:21:42;;;;;;;3.33;1.38;;;24.50;99.90;;;;;;5105409;28;20249;-52
2022/06/07 11:24:21;;;;;;;3.17;0.98;;;24.50;99.90;;;;;;5077250;28;20223;-52
2022/06/07 11:27:19;;;;;;;2.03;0.90;;;24.80;99.90;;;;;;5084390;28;20212;-52
2022/06/07 11:29:48;;;;;;;1.33;1.10;;;24.90;99.90;;;;;;5082069;28;20707;-52
2022/06/07 11:32:41;;;;;;;4.15;1.00;;;24.70;99.90;;;;;;5100338;28;20254;-52
2022/06/07 11:35:48;;;;;;;1.73;1.33;;;24.40;99.90;;;;;;5109052;28;20219;-52
2022/06/07 11:38:29;;;;;;;2.05;1.10;;;23.90;99.90;;;;;;5093720;28;20230;-52
2022/06/07 11:43:56;;;;;;;1.35;0.80;;;23.80;99.90;;;;;;5093873;28;20243;-52
2022/06/07 11:46:38;;;;;;;3.28;1.25;;;23.70;99.90;;;;;;5095631;28;20207;-51
2022/06/07 11:49:39;;;;;;;3.70;1.25;;;23.70;99.90;;;;;;5096307;28;20692;-52
2022/06/07 11:52:22;;;;;;;1.77;1.00;;;23.70;99.90;;;;;;5108652;28;20227;-52
2022/06/07 11:54:56;;;;;;;2.50;0.93;;;23.80;99.90;;;;;;5109818;28;20227;-52
2022/06/07 11:58:02;;;;;;;2.22;1.20;;;23.70;99.90;;;;;;5109053;28;20290;-52
2022/06/07 12:00:50;;;;;;;4.32;1.40;;;23.40;99.90;;;;;;5109581;28;20204;-52
2022/06/07 12:03:33;;;;;;;1.65;1.13;;;23.30;99.90;;;;;;5095539;28;20204;-51
2022/06/07 12:06:21;;;;;;;1.38;0.93;;;23.20;99.90;;;;;;5090006;28;20232;-52
2022/06/07 12:08:56;;;;;;;1.92;0.98;;;23.10;99.90;;;;;;5108416;28;20923;-52
2022/06/07 12:11:28;;;;;;;2.35;1.17;;;22.90;99.90;;;;;;5090577;28;20949;-52
2022/06/07 12:14:27;;;;;;;1.55;1.20;;;22.70;99.90;;;;;;5104858;28;20213;-52
2022/06/07 12:17:00;;;;;;;2.22;0.93;;;22.60;99.90;;;;;;5102753;28;20264;-52
2022/06/07 12:19:31;;;;;;;2.35;1.10;;;22.60;99.90;;;;;;5111579;28;20310;-52
2022/06/07 12:22:11;;;;;;;0.98;0.95;;;22.80;99.90;;;;;;5104952;28;20204;-52
2022/06/07 12:24:42;;;;;;;3.45;1.20;;;23.10;99.90;;;;;;5108598;28;20231;-52
2022/06/07 12:27:30;;;;;;;2.92;1.13;;;23.30;99.90;;;;;;5107641;28;20302;-51
2022/06/07 12:30:03;;;;;;;1.33;1.10;;;23.40;99.90;;;;;;5112387;28;20215;-52
2022/06/07 12:32:39;;;;;;;2.45;1.00;;;23.40;99.90;;;;;;5112832;28;20207;-51
2022/06/07 12:35:17;;;;;;;1.45;1.20;;;23.50;99.90;;;;;;5112598;28;20231;-52
2022/06/07 12:37:48;;;;;;;1.70;1.27;;;23.40;99.90;;;;;;5113395;28;20250;-52
2022/06/07 12:40:33;;;;;;;2.70;1.05;;;23.40;99.90;;;;;;5112547;28;20227;-52
2022/06/07 12:43:03;;;;;;;1.38;0.80;;;23.40;99.90;;;;;;5112353;28;20638;-51
2022/06/07 12:45:34;;;;;;;1.58;0.85;;;23.30;99.90;;;;;;5091323;28;20252;-51
2022/06/07 12:48:15;;;;;;;2.13;1.25;;;23.10;99.90;;;;;;5089711;28;20196;-53
2022/06/07 12:50:46;;;;;;;1.33;1.17;;;22.80;99.90;;;;;;5079115;28;20208;-52
2022/06/07 12:53:22;;;;;;;3.60;1.20;;;22.70;99.90;;;;;;5095463;28;20200;-52
2022/06/07 12:55:58;;;;;;;1.52;1.30;;;22.70;99.90;;;;;;5086336;28;20339;-52
2022/06/07 12:58:32;;;;;;;3.47;1.35;;;22.80;99.90;;;;;;5109411;28;20760;-52
2022/06/07 13:01:01;;;;;;;1.77;1.20;;;23.10;99.90;;;;;;5112609;28;20235;-52
2022/06/07 13:03:33;;;;;;;2.83;1.40;;;23.40;99.90;;;;;;5105729;28;20351;-52
2022/06/07 13:06:03;;;;;;;1.98;1.25;;;23.70;99.90;;;;;;5112790;28;20314;-52
2022/06/07 13:08:35;;;;;;;5.57;1.92;;;23.70;99.90;;;;;;5111755;28;20242;-52
2022/06/07 13:11:06;;;;;;;2.17;1.13;;;23.80;99.90;;;;;;5098899;28;20204;-51
2022/06/07 13:13:39;;;;;;;2.65;1.10;;;23.90;99.90;;;;;;5112027;28;20204;-51
2022/06/07 13:16:32;;;;;;;2.00;1.23;;;23.90;99.90;;;;;;5097615;28;20282;-52
2022/06/07 13:19:03;;;;;;;3.38;1.30;;;23.80;99.90;;;;;;5112134;28;20615;-52
2022/06/07 13:21:34;;;;;;;2.33;1.33;;;23.70;99.90;;;;;;5107913;28;20253;-51
2022/06/07 13:24:03;;;;;;;3.40;1.50;;;23.70;99.90;;;;;;5102942;28;20207;-51
2022/06/07 13:26:33;;;;;;;1.83;1.25;;;23.60;99.90;;;;;;5111345;28;20210;-52
2022/06/07 13:29:16;;;;;;;2.10;1.35;;;23.70;99.90;;;;;;5111424;28;20287;-52
2022/06/07 13:31:47;;;;;;;1.10;1.00;;;23.70;99.90;;;;;;5110914;28;20777;-51
2022/06/07 13:34:24;;;;;;;2.75;1.45;;;23.60;99.90;;;;;;5111235;28;20276;-52
2022/06/07 13:37:12;;;;;;;2.40;1.02;;;23.60;99.90;;;;;;5111431;28;20236;-52
2022/06/07 13:39:42;;;;;;;1.35;1.05;;;23.70;99.90;;;;;;5111217;28;20259;-52
2022/06/07 13:42:19;;;;;;;1.88;1.20;;;23.70;99.90;;;;;;5111222;28;20688;-52
2022/06/07 13:45:04;;;;;;;2.25;1.00;;;23.70;99.90;;;;;;5103807;28;20280;-51